createdAt,value
2023-03-22T00:00:06.888Z,16.42
2023-03-22T00:03:10.593Z,15.30
2023-03-22T00:06:13.088Z,15.60
2023-03-22T00:09:15.881Z,15.65
2023-03-22T00:12:18.871Z,14.30
2023-03-22T00:15:21.139Z,15.38
2023-03-22T00:18:23.894Z,16.77
2023-03-22T00:21:26.109Z,15.57
2023-03-22T00:24:28.165Z,18.20
2023-03-22T00:27:30.627Z,16.93
2023-03-22T00:30:32.776Z,15.90
2023-03-22T00:33:35.517Z,14.93
2023-03-22T00:36:38.061Z,15.32
2023-03-22T00:39:40.326Z,15.05
2023-03-22T00:42:42.461Z,14.73
2023-03-22T00:45:44.683Z,17.73
2023-03-22T00:48:47.807Z,16.52
2023-03-22T00:51:49.868Z,15.27
2023-03-22T00:54:52.082Z,16.40
2023-03-22T00:57:54.179Z,17.43
2023-03-22T01:00:56.221Z,13.23
2023-03-22T01:03:58.500Z,16.50
2023-03-22T01:07:02.086Z,16.65
2023-03-22T01:10:06.356Z,17.95
2023-03-22T01:13:09.235Z,16.33
2023-03-22T01:16:11.458Z,14.75
2023-03-22T01:19:13.786Z,16.80
2023-03-22T01:22:15.899Z,19.17
2023-03-22T01:25:18.253Z,16.87
2023-03-22T01:28:20.415Z,17.60
2023-03-22T01:31:22.529Z,15.93
2023-03-22T01:34:26.660Z,17.15
2023-03-22T01:37:28.798Z,16.35
2023-03-22T01:40:31.070Z,17.55
2023-03-22T01:43:33.506Z,15.63
2023-03-22T01:46:35.711Z,14.73
2023-03-22T01:49:39.287Z,16.17
2023-03-22T01:52:41.696Z,21.00
2023-03-22T01:55:45.613Z,19.12
2023-03-22T01:58:48.998Z,15.83
2023-03-22T02:01:51.237Z,17.10
2023-03-22T02:04:58.132Z,16.20
2023-03-22T02:08:01.179Z,15.50
2023-03-22T02:11:04.572Z,15.27
2023-03-22T02:14:54.207Z,15.43
2023-03-22T02:18:30.010Z,14.13
2023-03-22T02:22:04.826Z,14.05
2023-03-22T02:25:54.637Z,13.73
2023-03-22T02:29:07.551Z,14.73
2023-03-22T02:32:28.189Z,15.80
2023-03-22T02:35:48.516Z,16.70
2023-03-22T02:39:11.789Z,14.50
2023-03-22T02:42:26.004Z,12.55
2023-03-22T02:45:54.674Z,14.60
2023-03-22T02:49:33.994Z,15.67
2023-03-22T02:52:44.659Z,17.85
2023-03-22T02:55:46.721Z,13.35
2023-03-22T02:58:53.423Z,14.85
2023-03-22T03:01:59.624Z,15.52
2023-03-22T03:05:02.991Z,17.87
2023-03-22T03:08:06.901Z,17.65
2023-03-22T03:11:10.252Z,22.50
2023-03-22T03:14:27.706Z,23.73
2023-03-22T03:17:35.660Z,22.98
2023-03-22T03:20:52.936Z,22.20
2023-03-22T03:24:03.616Z,20.50
2023-03-22T03:27:31.179Z,25.05
2023-03-22T03:30:43.373Z,26.02
2023-03-22T03:34:12.142Z,22.33
2023-03-22T03:37:19.974Z,19.00
2023-03-22T03:40:54.488Z,24.15
2023-03-22T03:43:58.677Z,23.23
2023-03-22T03:47:02.966Z,22.35
2023-03-22T03:50:06.453Z,19.73
2023-03-22T03:53:09.972Z,17.67
2023-03-22T03:56:12.146Z,20.00
2023-03-22T03:59:18.594Z,19.45
2023-03-22T04:02:20.870Z,20.83
2023-03-22T04:05:23.282Z,19.23
2023-03-22T04:08:26.054Z,18.27
2023-03-22T04:11:28.112Z,32.65
2023-03-22T04:14:30.535Z,27.00
2023-03-22T04:17:33.063Z,23.75
2023-03-22T04:20:35.046Z,17.00
2023-03-22T04:23:37.327Z,16.33
2023-03-22T04:26:39.512Z,18.27
2023-03-22T04:29:41.642Z,15.52
2023-03-22T04:32:43.734Z,15.68
2023-03-22T04:35:46.508Z,15.48
2023-03-22T04:38:49.325Z,16.23
2023-03-22T04:41:51.450Z,15.63
2023-03-22T04:44:53.437Z,18.58
2023-03-22T04:47:56.184Z,23.98
2023-03-22T04:50:58.482Z,26.37
2023-03-22T04:54:00.712Z,22.80
2023-03-22T04:57:02.798Z,25.75
2023-03-22T05:00:08.531Z,28.50
2023-03-22T05:03:10.735Z,26.58
2023-03-22T05:06:13.653Z,19.90
2023-03-22T05:09:16.271Z,20.17
2023-03-22T05:12:18.403Z,19.02
2023-03-22T05:15:20.492Z,17.17
2023-03-22T05:18:26.953Z,13.85
2023-03-22T05:21:36.743Z,16.85
2023-03-22T05:24:38.949Z,14.27
2023-03-22T05:27:41.006Z,19.67
2023-03-22T05:30:44.143Z,26.83
2023-03-22T05:33:46.795Z,32.45
2023-03-22T05:36:51.651Z,27.30
2023-03-22T05:39:56.229Z,28.33
2023-03-22T05:42:58.713Z,27.25
2023-03-22T05:46:00.754Z,37.95
2023-03-22T05:49:02.774Z,33.65
2023-03-22T05:52:06.152Z,29.10
2023-03-22T05:55:08.752Z,31.17
2023-03-22T05:58:11.028Z,25.88
2023-03-22T06:01:16.550Z,25.48
2023-03-22T06:04:18.889Z,22.83
2023-03-22T06:07:20.924Z,20.20
2023-03-22T06:10:24.327Z,21.27
2023-03-22T06:13:26.925Z,20.00
2023-03-22T06:16:29.036Z,19.65
2023-03-22T06:19:31.428Z,22.20
2023-03-22T06:22:33.738Z,18.62
2023-03-22T06:25:36.186Z,20.07
2023-03-22T06:28:38.350Z,15.55
2023-03-22T06:31:40.764Z,15.27
2023-03-22T06:34:42.946Z,16.62
2023-03-22T06:37:45.014Z,20.73
2023-03-22T06:40:47.213Z,24.27
2023-03-22T06:43:49.267Z,22.87
2023-03-22T06:46:51.483Z,24.70
2023-03-22T06:49:53.786Z,20.55
2023-03-22T06:52:56.410Z,22.42
2023-03-22T06:55:58.404Z,19.07
2023-03-22T06:59:00.463Z,22.20
2023-03-22T07:02:02.966Z,22.00
2023-03-22T07:05:05.480Z,18.90
2023-03-22T07:08:07.834Z,22.27
2023-03-22T07:11:09.870Z,18.57
2023-03-22T07:14:11.955Z,17.92
2023-03-22T07:17:14.341Z,18.40
2023-03-22T07:20:16.610Z,17.85
2023-03-22T07:23:18.934Z,19.50
2023-03-22T07:26:21.258Z,21.23
2023-03-22T07:29:23.987Z,20.17
2023-03-22T07:32:26.161Z,19.52
2023-03-22T07:35:28.315Z,17.35
2023-03-22T07:38:31.081Z,24.30
2023-03-22T07:41:33.330Z,21.77
2023-03-22T07:44:36.205Z,17.05
2023-03-22T07:47:41.335Z,16.95
2023-03-22T07:50:43.696Z,18.73
2023-03-22T07:53:46.135Z,18.40
2023-03-22T07:56:48.499Z,24.50
2023-03-22T07:59:50.676Z,19.65
2023-03-22T08:02:53.066Z,18.05
2023-03-22T08:05:58.721Z,19.83
2023-03-22T08:09:01.351Z,16.60
2023-03-22T08:12:03.849Z,19.50
2023-03-22T08:15:06.436Z,21.90
2023-03-22T08:18:08.880Z,19.60
2023-03-22T08:21:11.382Z,17.55
2023-03-22T08:24:16.126Z,17.75
2023-03-22T08:27:19.263Z,16.93
2023-03-22T08:30:22.541Z,17.90
2023-03-22T08:33:25.488Z,20.67
2023-03-22T08:36:27.720Z,16.50
2023-03-22T08:39:29.758Z,15.52
2023-03-22T08:42:32.120Z,17.83
2023-03-22T08:45:34.739Z,17.73
2023-03-22T08:48:38.665Z,15.95
2023-03-22T08:51:41.343Z,14.70
2023-03-22T08:54:43.650Z,16.23
2023-03-22T08:57:50.317Z,14.27
2023-03-22T09:00:52.588Z,16.62
2023-03-22T09:03:54.822Z,11.88
2023-03-22T09:06:57.033Z,13.13
2023-03-22T09:09:59.235Z,14.60
2023-03-22T09:13:01.391Z,14.73
2023-03-22T09:16:04.465Z,16.35
2023-03-22T09:19:06.889Z,16.42
2023-03-22T09:22:09.493Z,18.10
2023-03-22T09:25:13.096Z,14.43
2023-03-22T09:28:16.676Z,14.43
2023-03-22T09:31:20.522Z,14.87
2023-03-22T09:34:22.977Z,13.68
2023-03-22T09:37:30.379Z,14.38
2023-03-22T09:40:35.264Z,15.32
2023-03-22T09:43:42.536Z,14.70
2023-03-22T09:46:48.175Z,15.20
2023-03-22T09:50:01.419Z,12.85
2023-03-22T09:53:03.585Z,13.75
2023-03-22T09:56:18.002Z,11.88
2023-03-22T09:59:40.146Z,14.23
2023-03-22T10:02:54.662Z,10.95
2023-03-22T10:06:21.052Z,12.43
2023-03-22T10:09:37.628Z,12.85
2023-03-22T10:12:40.024Z,14.90
2023-03-22T10:15:48.541Z,11.83
2023-03-22T10:18:53.934Z,15.98
2023-03-22T10:22:00.145Z,11.00
2023-03-22T10:25:03.294Z,12.77
2023-03-22T10:28:24.047Z,12.60
2023-03-22T10:31:28.111Z,11.43
2023-03-22T10:34:33.777Z,11.75
2023-03-22T10:37:37.754Z,10.52
2023-03-22T10:40:41.134Z,10.75
2023-03-22T10:43:46.205Z,11.27
2023-03-22T10:46:51.617Z,11.77
2023-03-22T10:49:56.312Z,12.25
2023-03-22T10:53:07.102Z,8.60
2023-03-22T10:56:15.903Z,9.50
2023-03-22T10:59:51.787Z,8.98
2023-03-22T11:02:59.736Z,12.13
2023-03-22T11:06:18.244Z,9.48
2023-03-22T11:09:23.785Z,12.82
2023-03-22T11:12:25.974Z,11.25
2023-03-22T11:15:31.869Z,13.73
2023-03-22T11:18:35.183Z,9.27
2023-03-22T11:21:37.397Z,9.32
2023-03-22T11:24:39.545Z,10.52
2023-03-22T11:27:57.944Z,8.80
2023-03-22T11:31:09.956Z,10.40
2023-03-22T11:34:18.490Z,9.83
2023-03-22T11:37:22.442Z,8.82
2023-03-22T11:40:30.910Z,10.23
2023-03-22T11:43:37.414Z,10.43
2023-03-22T11:46:40.353Z,8.95
2023-03-22T11:49:51.267Z,8.90
2023-03-22T11:52:54.194Z,9.68
2023-03-22T11:55:57.974Z,10.52
2023-03-22T11:59:08.936Z,10.02
2023-03-22T12:02:49.867Z,10.43
2023-03-22T12:05:53.241Z,9.33
2023-03-22T12:09:11.037Z,11.63
2023-03-22T12:12:19.397Z,9.52
2023-03-22T12:15:24.740Z,9.90
2023-03-22T12:18:36.497Z,9.23
2023-03-22T12:21:38.981Z,9.40
2023-03-22T12:24:42.913Z,8.70
2023-03-22T12:27:48.794Z,8.80
2023-03-22T12:30:54.627Z,9.73
2023-03-22T12:34:03.311Z,10.00
2023-03-22T12:37:09.354Z,9.67
2023-03-22T12:40:28.655Z,8.95
2023-03-22T12:43:33.543Z,8.93
2023-03-22T12:46:45.215Z,8.23
2023-03-22T12:49:49.958Z,8.48
2023-03-22T12:52:56.657Z,8.67
2023-03-22T12:56:01.199Z,9.45
2023-03-22T12:59:06.674Z,10.45
2023-03-22T13:02:19.928Z,7.72
2023-03-22T13:05:27.199Z,8.45
2023-03-22T13:09:24.379Z,11.17
2023-03-22T13:12:30.508Z,8.25
2023-03-22T13:15:42.081Z,12.05
2023-03-22T13:18:45.335Z,8.68
2023-03-22T13:21:49.456Z,8.52
2023-03-22T13:25:12.636Z,8.97
2023-03-22T13:28:37.283Z,8.10
2023-03-22T13:31:44.576Z,7.80
2023-03-22T13:34:52.580Z,9.25
2023-03-22T13:38:03.061Z,7.15
2023-03-22T13:41:14.194Z,7.67
2023-03-22T13:44:26.510Z,7.22
2023-03-22T13:47:43.755Z,8.60
2023-03-22T13:50:46.185Z,9.52
2023-03-22T13:53:57.243Z,7.70
2023-03-22T13:57:01.634Z,7.30
2023-03-22T14:00:33.617Z,7.72
2023-03-22T14:03:40.981Z,7.97
2023-03-22T14:07:24.391Z,8.63
2023-03-22T14:10:33.093Z,10.38
2023-03-22T14:13:42.374Z,6.93
2023-03-22T14:16:50.901Z,8.30
2023-03-22T14:19:53.512Z,8.82
